sensor_id;sensor_type;location;lat;lon;timestamp;P1;durP1;ratioP1;P2;durP2;ratioP2
41829;SDS011;38614;43.472;23.936;2023-02-28T00:00:32;13.57;;;6.03;;
41829;SDS011;38614;43.472;23.936;2023-02-28T00:03:20;11.30;;;5.47;;
41829;SDS011;38614;43.472;23.936;2023-02-28T00:06:08;8.05;;;5.35;;
41829;SDS011;38614;43.472;23.936;2023-02-28T00:08:56;16.63;;;5.72;;
41829;SDS011;38614;43.472;23.936;2023-02-28T00:11:44;10.63;;;5.38;;
41829;SDS011;38614;43.472;23.936;2023-02-28T00:14:32;8.40;;;4.88;;
41829;SDS011;38614;43.472;23.936;2023-02-28T00:17:19;11.65;;;5.30;;
41829;SDS011;38614;43.472;23.936;2023-02-28T00:20:09;9.43;;;5.43;;
41829;SDS011;38614;43.472;23.936;2023-02-28T00:22:58;7.63;;;4.97;;
41829;SDS011;38614;43.472;23.936;2023-02-28T00:25:46;11.18;;;4.95;;
41829;SDS011;38614;43.472;23.936;2023-02-28T00:28:34;8.27;;;5.32;;
41829;SDS011;38614;43.472;23.936;2023-02-28T00:31:22;12.40;;;5.63;;
41829;SDS011;38614;43.472;23.936;2023-02-28T00:34:10;8.32;;;4.93;;
41829;SDS011;38614;43.472;23.936;2023-02-28T00:36:58;10.93;;;5.55;;
41829;SDS011;38614;43.472;23.936;2023-02-28T00:39:46;9.32;;;5.50;;
41829;SDS011;38614;43.472;23.936;2023-02-28T00:42:35;10.35;;;6.18;;
41829;SDS011;38614;43.472;23.936;2023-02-28T00:45:23;8.95;;;5.05;;
41829;SDS011;38614;43.472;23.936;2023-02-28T00:48:11;10.48;;;5.97;;
41829;SDS011;38614;43.472;23.936;2023-02-28T00:50:58;11.23;;;5.45;;
41829;SDS011;38614;43.472;23.936;2023-02-28T00:53:46;11.52;;;6.20;;
41829;SDS011;38614;43.472;23.936;2023-02-28T00:56:36;11.02;;;5.25;;
41829;SDS011;38614;43.472;23.936;2023-02-28T00:59:23;12.20;;;5.72;;
41829;SDS011;38614;43.472;23.936;2023-02-28T01:02:11;8.68;;;5.03;;
41829;SDS011;38614;43.472;23.936;2023-02-28T01:04:59;8.70;;;5.85;;
41829;SDS011;38614;43.472;23.936;2023-02-28T01:07:49;10.63;;;5.70;;
41829;SDS011;38614;43.472;23.936;2023-02-28T01:10:37;11.10;;;6.22;;
41829;SDS011;38614;43.472;23.936;2023-02-28T01:13:26;12.55;;;5.35;;
41829;SDS011;38614;43.472;23.936;2023-02-28T01:16:14;8.65;;;5.68;;
41829;SDS011;38614;43.472;23.936;2023-02-28T01:19:02;9.32;;;6.15;;
41829;SDS011;38614;43.472;23.936;2023-02-28T01:21:50;11.02;;;7.00;;
41829;SDS011;38614;43.472;23.936;2023-02-28T01:24:38;19.13;;;7.88;;
41829;SDS011;38614;43.472;23.936;2023-02-28T01:27:26;14.27;;;7.82;;
41829;SDS011;38614;43.472;23.936;2023-02-28T01:30:14;19.38;;;9.30;;
41829;SDS011;38614;43.472;23.936;2023-02-28T01:33:02;16.00;;;8.43;;
41829;SDS011;38614;43.472;23.936;2023-02-28T01:35:49;19.20;;;8.20;;
41829;SDS011;38614;43.472;23.936;2023-02-28T01:38:44;16.95;;;9.85;;
41829;SDS011;38614;43.472;23.936;2023-02-28T01:41:33;18.65;;;8.82;;
41829;SDS011;38614;43.472;23.936;2023-02-28T01:47:47;12.27;;;6.68;;
41829;SDS011;38614;43.472;23.936;2023-02-28T01:50:39;16.08;;;8.02;;
41829;SDS011;38614;43.472;23.936;2023-02-28T01:53:32;18.08;;;10.40;;
41829;SDS011;38614;43.472;23.936;2023-02-28T01:57:16;21.03;;;11.00;;
41829;SDS011;38614;43.472;23.936;2023-02-28T01:59:59;15.98;;;8.70;;
41829;SDS011;38614;43.472;23.936;2023-02-28T02:03:00;14.50;;;9.18;;
41829;SDS011;38614;43.472;23.936;2023-02-28T02:05:55;16.50;;;7.75;;
41829;SDS011;38614;43.472;23.936;2023-02-28T02:08:46;13.80;;;8.65;;
41829;SDS011;38614;43.472;23.936;2023-02-28T02:11:34;17.33;;;8.60;;
41829;SDS011;38614;43.472;23.936;2023-02-28T02:21:44;11.95;;;7.13;;
41829;SDS011;38614;43.472;23.936;2023-02-28T02:24:58;16.20;;;9.05;;
41829;SDS011;38614;43.472;23.936;2023-02-28T02:37:36;16.23;;;7.78;;
41829;SDS011;38614;43.472;23.936;2023-02-28T02:40:27;10.98;;;7.13;;
41829;SDS011;38614;43.472;23.936;2023-02-28T02:43:25;14.93;;;7.40;;
41829;SDS011;38614;43.472;23.936;2023-02-28T02:46:22;18.58;;;7.80;;
41829;SDS011;38614;43.472;23.936;2023-02-28T02:49:22;17.40;;;8.85;;
41829;SDS011;38614;43.472;23.936;2023-02-28T02:52:14;15.18;;;8.45;;
41829;SDS011;38614;43.472;23.936;2023-02-28T02:55:06;13.30;;;8.13;;
41829;SDS011;38614;43.472;23.936;2023-02-28T02:57:58;10.55;;;6.75;;
41829;SDS011;38614;43.472;23.936;2023-02-28T03:00:52;11.95;;;6.95;;
41829;SDS011;38614;43.472;23.936;2023-02-28T03:03:43;7.25;;;5.07;;
41829;SDS011;38614;43.472;23.936;2023-02-28T03:06:32;12.13;;;6.13;;
41829;SDS011;38614;43.472;23.936;2023-02-28T03:09:24;11.82;;;5.28;;
41829;SDS011;38614;43.472;23.936;2023-02-28T03:12:15;6.78;;;4.65;;
41829;SDS011;38614;43.472;23.936;2023-02-28T03:15:08;5.57;;;4.70;;
41829;SDS011;38614;43.472;23.936;2023-02-28T03:18:06;7.13;;;5.03;;
41829;SDS011;38614;43.472;23.936;2023-02-28T03:21:17;7.93;;;5.10;;
41829;SDS011;38614;43.472;23.936;2023-02-28T03:24:28;12.98;;;4.85;;
41829;SDS011;38614;43.472;23.936;2023-02-28T03:33:18;8.43;;;5.35;;
41829;SDS011;38614;43.472;23.936;2023-02-28T03:36:11;7.15;;;5.45;;
41829;SDS011;38614;43.472;23.936;2023-02-28T03:39:04;10.63;;;5.82;;
41829;SDS011;38614;43.472;23.936;2023-02-28T03:42:01;6.97;;;4.63;;
41829;SDS011;38614;43.472;23.936;2023-02-28T03:44:55;9.07;;;5.07;;
41829;SDS011;38614;43.472;23.936;2023-02-28T03:47:54;7.60;;;5.75;;
41829;SDS011;38614;43.472;23.936;2023-02-28T03:50:51;9.82;;;4.95;;
41829;SDS011;38614;43.472;23.936;2023-02-28T03:53:44;12.27;;;5.22;;
41829;SDS011;38614;43.472;23.936;2023-02-28T03:56:43;16.20;;;7.60;;
41829;SDS011;38614;43.472;23.936;2023-02-28T03:59:42;10.48;;;5.53;;
41829;SDS011;38614;43.472;23.936;2023-02-28T04:02:33;15.88;;;7.70;;
41829;SDS011;38614;43.472;23.936;2023-02-28T04:05:24;12.95;;;6.07;;
41829;SDS011;38614;43.472;23.936;2023-02-28T04:08:12;8.38;;;4.88;;
41829;SDS011;38614;43.472;23.936;2023-02-28T04:11:03;15.88;;;6.43;;
41829;SDS011;38614;43.472;23.936;2023-02-28T04:14:06;11.90;;;6.72;;
41829;SDS011;38614;43.472;23.936;2023-02-28T04:16:57;15.90;;;7.95;;
41829;SDS011;38614;43.472;23.936;2023-02-28T04:19:45;13.32;;;6.70;;
41829;SDS011;38614;43.472;23.936;2023-02-28T04:22:33;14.25;;;6.78;;
41829;SDS011;38614;43.472;23.936;2023-02-28T04:25:20;16.67;;;7.18;;
41829;SDS011;38614;43.472;23.936;2023-02-28T04:28:08;11.77;;;6.30;;
41829;SDS011;38614;43.472;23.936;2023-02-28T04:31:00;12.57;;;6.82;;
41829;SDS011;38614;43.472;23.936;2023-02-28T04:33:51;13.10;;;7.07;;
41829;SDS011;38614;43.472;23.936;2023-02-28T04:36:38;17.83;;;7.10;;
41829;SDS011;38614;43.472;23.936;2023-02-28T04:39:26;8.45;;;6.72;;
41829;SDS011;38614;43.472;23.936;2023-02-28T04:42:14;11.77;;;5.82;;
41829;SDS011;38614;43.472;23.936;2023-02-28T04:45:02;14.07;;;6.95;;
41829;SDS011;38614;43.472;23.936;2023-02-28T04:47:50;14.57;;;8.48;;
41829;SDS011;38614;43.472;23.936;2023-02-28T04:50:38;14.25;;;7.18;;
41829;SDS011;38614;43.472;23.936;2023-02-28T04:53:27;12.38;;;7.75;;
41829;SDS011;38614;43.472;23.936;2023-02-28T04:56:17;17.38;;;7.30;;
41829;SDS011;38614;43.472;23.936;2023-02-28T04:59:05;16.25;;;8.02;;
41829;SDS011;38614;43.472;23.936;2023-02-28T05:01:53;19.58;;;9.63;;
41829;SDS011;38614;43.472;23.936;2023-02-28T05:04:41;16.40;;;9.73;;
41829;SDS011;38614;43.472;23.936;2023-02-28T05:07:29;16.17;;;8.88;;
41829;SDS011;38614;43.472;23.936;2023-02-28T05:10:16;11.85;;;7.30;;
41829;SDS011;38614;43.472;23.936;2023-02-28T05:13:04;11.98;;;8.30;;
41829;SDS011;38614;43.472;23.936;2023-02-28T05:15:53;12.60;;;6.88;;
41829;SDS011;38614;43.472;23.936;2023-02-28T05:18:41;14.75;;;7.32;;
41829;SDS011;38614;43.472;23.936;2023-02-28T05:21:30;10.48;;;7.55;;
41829;SDS011;38614;43.472;23.936;2023-02-28T05:24:22;17.30;;;7.13;;
41829;SDS011;38614;43.472;23.936;2023-02-28T05:27:10;13.10;;;6.45;;
41829;SDS011;38614;43.472;23.936;2023-02-28T05:29:58;11.10;;;6.70;;
41829;SDS011;38614;43.472;23.936;2023-02-28T05:32:49;14.27;;;6.90;;
41829;SDS011;38614;43.472;23.936;2023-02-28T05:35:41;15.38;;;7.28;;
41829;SDS011;38614;43.472;23.936;2023-02-28T05:38:32;14.68;;;7.13;;
41829;SDS011;38614;43.472;23.936;2023-02-28T05:41:20;18.55;;;8.27;;
41829;SDS011;38614;43.472;23.936;2023-02-28T05:44:09;21.13;;;10.30;;
41829;SDS011;38614;43.472;23.936;2023-02-28T05:46:57;14.95;;;8.35;;
41829;SDS011;38614;43.472;23.936;2023-02-28T05:49:45;27.80;;;13.43;;
41829;SDS011;38614;43.472;23.936;2023-02-28T05:52:33;20.05;;;10.40;;
41829;SDS011;38614;43.472;23.936;2023-02-28T05:55:20;19.85;;;11.32;;
41829;SDS011;38614;43.472;23.936;2023-02-28T05:58:14;10.63;;;6.30;;
41829;SDS011;38614;43.472;23.936;2023-02-28T06:01:19;11.60;;;7.03;;
41829;SDS011;38614;43.472;23.936;2023-02-28T06:04:09;13.45;;;6.82;;
41829;SDS011;38614;43.472;23.936;2023-02-28T06:07:11;24.55;;;11.00;;
41829;SDS011;38614;43.472;23.936;2023-02-28T06:09:59;14.52;;;7.63;;
41829;SDS011;38614;43.472;23.936;2023-02-28T06:12:47;16.05;;;8.13;;
41829;SDS011;38614;43.472;23.936;2023-02-28T06:15:35;17.13;;;7.38;;
41829;SDS011;38614;43.472;23.936;2023-02-28T06:18:22;16.00;;;8.93;;
41829;SDS011;38614;43.472;23.936;2023-02-28T06:21:11;13.15;;;7.35;;
41829;SDS011;38614;43.472;23.936;2023-02-28T06:23:59;9.68;;;6.53;;
41829;SDS011;38614;43.472;23.936;2023-02-28T06:26:47;15.98;;;7.05;;
41829;SDS011;38614;43.472;23.936;2023-02-28T06:29:35;14.27;;;7.03;;
41829;SDS011;38614;43.472;23.936;2023-02-28T06:32:26;13.77;;;7.72;;
41829;SDS011;38614;43.472;23.936;2023-02-28T06:35:14;11.98;;;7.38;;
41829;SDS011;38614;43.472;23.936;2023-02-28T06:38:02;13.10;;;6.45;;
41829;SDS011;38614;43.472;23.936;2023-02-28T06:41:00;18.33;;;7.18;;
41829;SDS011;38614;43.472;23.936;2023-02-28T06:43:48;10.02;;;5.50;;
41829;SDS011;38614;43.472;23.936;2023-02-28T06:46:35;14.60;;;8.00;;
41829;SDS011;38614;43.472;23.936;2023-02-28T06:49:23;6.90;;;5.43;;
41829;SDS011;38614;43.472;23.936;2023-02-28T06:52:11;11.25;;;5.47;;
41829;SDS011;38614;43.472;23.936;2023-02-28T06:54:59;9.25;;;6.13;;
41829;SDS011;38614;43.472;23.936;2023-02-28T06:57:46;10.77;;;7.22;;
41829;SDS011;38614;43.472;23.936;2023-02-28T07:00:34;12.38;;;6.80;;
41829;SDS011;38614;43.472;23.936;2023-02-28T07:03:22;20.17;;;11.00;;
41829;SDS011;38614;43.472;23.936;2023-02-28T07:06:10;19.92;;;11.38;;
41829;SDS011;38614;43.472;23.936;2023-02-28T07:08:58;16.00;;;9.93;;
41829;SDS011;38614;43.472;23.936;2023-02-28T07:11:46;14.93;;;8.30;;
41829;SDS011;38614;43.472;23.936;2023-02-28T07:14:33;15.18;;;9.95;;
41829;SDS011;38614;43.472;23.936;2023-02-28T07:17:24;18.42;;;9.30;;
41829;SDS011;38614;43.472;23.936;2023-02-28T07:20:11;35.08;;;12.10;;
41829;SDS011;38614;43.472;23.936;2023-02-28T07:22:59;20.17;;;9.50;;
41829;SDS011;38614;43.472;23.936;2023-02-28T07:25:47;23.15;;;7.15;;
41829;SDS011;38614;43.472;23.936;2023-02-28T07:28:36;15.95;;;7.72;;
41829;SDS011;38614;43.472;23.936;2023-02-28T07:31:25;14.43;;;8.30;;
41829;SDS011;38614;43.472;23.936;2023-02-28T07:34:13;12.25;;;7.68;;
41829;SDS011;38614;43.472;23.936;2023-02-28T07:37:01;12.23;;;7.22;;
41829;SDS011;38614;43.472;23.936;2023-02-28T07:39:51;10.30;;;6.25;;
41829;SDS011;38614;43.472;23.936;2023-02-28T07:42:39;17.52;;;8.70;;
41829;SDS011;38614;43.472;23.936;2023-02-28T07:45:29;13.77;;;6.63;;
41829;SDS011;38614;43.472;23.936;2023-02-28T07:48:18;10.68;;;6.70;;
41829;SDS011;38614;43.472;23.936;2023-02-28T07:51:06;10.35;;;7.13;;
41829;SDS011;38614;43.472;23.936;2023-02-28T07:53:54;9.95;;;6.43;;
41829;SDS011;38614;43.472;23.936;2023-02-28T07:56:49;12.40;;;7.38;;
41829;SDS011;38614;43.472;23.936;2023-02-28T07:59:45;15.70;;;7.25;;
41829;SDS011;38614;43.472;23.936;2023-02-28T08:02:33;11.27;;;8.27;;
41829;SDS011;38614;43.472;23.936;2023-02-28T08:05:24;11.43;;;8.02;;
41829;SDS011;38614;43.472;23.936;2023-02-28T08:08:12;15.95;;;8.18;;
41829;SDS011;38614;43.472;23.936;2023-02-28T08:11:00;11.98;;;7.25;;
41829;SDS011;38614;43.472;23.936;2023-02-28T08:13:49;17.27;;;7.93;;
41829;SDS011;38614;43.472;23.936;2023-02-28T08:16:36;11.82;;;8.10;;
41829;SDS011;38614;43.472;23.936;2023-02-28T08:19:26;16.88;;;10.05;;
41829;SDS011;38614;43.472;23.936;2023-02-28T08:22:14;15.18;;;8.20;;
41829;SDS011;38614;43.472;23.936;2023-02-28T08:25:02;13.20;;;8.00;;
41829;SDS011;38614;43.472;23.936;2023-02-28T08:27:50;23.63;;;12.68;;
41829;SDS011;38614;43.472;23.936;2023-02-28T08:30:39;22.35;;;10.60;;
41829;SDS011;38614;43.472;23.936;2023-02-28T08:33:32;14.88;;;8.65;;
41829;SDS011;38614;43.472;23.936;2023-02-28T08:36:19;26.10;;;10.65;;
41829;SDS011;38614;43.472;23.936;2023-02-28T08:39:07;12.68;;;8.38;;
41829;SDS011;38614;43.472;23.936;2023-02-28T08:41:56;21.08;;;9.30;;
41829;SDS011;38614;43.472;23.936;2023-02-28T08:44:53;12.73;;;7.35;;
41829;SDS011;38614;43.472;23.936;2023-02-28T08:47:41;13.93;;;8.32;;
41829;SDS011;38614;43.472;23.936;2023-02-28T08:50:29;13.82;;;8.25;;
41829;SDS011;38614;43.472;23.936;2023-02-28T08:53:19;15.50;;;7.88;;
41829;SDS011;38614;43.472;23.936;2023-02-28T08:56:13;29.98;;;11.35;;
41829;SDS011;38614;43.472;23.936;2023-02-28T08:59:03;31.52;;;11.57;;
41829;SDS011;38614;43.472;23.936;2023-02-28T09:01:51;18.65;;;9.77;;
41829;SDS011;38614;43.472;23.936;2023-02-28T09:04:38;19.88;;;10.20;;
41829;SDS011;38614;43.472;23.936;2023-02-28T09:07:26;17.95;;;10.90;;
41829;SDS011;38614;43.472;23.936;2023-02-28T09:10:14;19.60;;;10.18;;
41829;SDS011;38614;43.472;23.936;2023-02-28T09:13:02;17.80;;;9.65;;
41829;SDS011;38614;43.472;23.936;2023-02-28T09:15:50;16.98;;;8.70;;
41829;SDS011;38614;43.472;23.936;2023-02-28T09:18:39;17.98;;;9.05;;
41829;SDS011;38614;43.472;23.936;2023-02-28T09:21:27;20.48;;;9.23;;
41829;SDS011;38614;43.472;23.936;2023-02-28T09:24:15;15.60;;;9.48;;
41829;SDS011;38614;43.472;23.936;2023-02-28T09:27:04;19.65;;;10.30;;
41829;SDS011;38614;43.472;23.936;2023-02-28T09:29:53;22.08;;;11.50;;
41829;SDS011;38614;43.472;23.936;2023-02-28T09:32:40;22.80;;;11.30;;
41829;SDS011;38614;43.472;23.936;2023-02-28T09:35:28;24.55;;;13.88;;
41829;SDS011;38614;43.472;23.936;2023-02-28T09:38:17;21.67;;;11.27;;
41829;SDS011;38614;43.472;23.936;2023-02-28T09:41:11;20.90;;;11.20;;
41829;SDS011;38614;43.472;23.936;2023-02-28T09:44:02;30.20;;;11.68;;
41829;SDS011;38614;43.472;23.936;2023-02-28T09:46:57;29.73;;;12.32;;
41829;SDS011;38614;43.472;23.936;2023-02-28T09:49:48;24.58;;;11.50;;
41829;SDS011;38614;43.472;23.936;2023-02-28T09:52:36;21.45;;;10.82;;
41829;SDS011;38614;43.472;23.936;2023-02-28T09:55:36;25.20;;;11.35;;
41829;SDS011;38614;43.472;23.936;2023-02-28T09:58:51;19.65;;;10.82;;
41829;SDS011;38614;43.472;23.936;2023-02-28T10:05:07;27.85;;;13.32;;
41829;SDS011;38614;43.472;23.936;2023-02-28T10:08:08;26.42;;;12.25;;
41829;SDS011;38614;43.472;23.936;2023-02-28T10:11:02;22.15;;;11.23;;
41829;SDS011;38614;43.472;23.936;2023-02-28T10:17:17;28.75;;;12.85;;
41829;SDS011;38614;43.472;23.936;2023-02-28T10:20:10;30.60;;;15.43;;
41829;SDS011;38614;43.472;23.936;2023-02-28T10:23:16;17.60;;;9.88;;
41829;SDS011;38614;43.472;23.936;2023-02-28T10:26:12;19.55;;;10.77;;
41829;SDS011;38614;43.472;23.936;2023-02-28T10:29:00;17.90;;;10.27;;
41829;SDS011;38614;43.472;23.936;2023-02-28T10:31:49;23.83;;;11.13;;
41829;SDS011;38614;43.472;23.936;2023-02-28T10:34:37;21.65;;;11.20;;
41829;SDS011;38614;43.472;23.936;2023-02-28T10:37:26;20.45;;;11.48;;
41829;SDS011;38614;43.472;23.936;2023-02-28T10:46:12;19.42;;;9.70;;
41829;SDS011;38614;43.472;23.936;2023-02-28T10:49:23;23.05;;;10.48;;
41829;SDS011;38614;43.472;23.936;2023-02-28T10:52:13;18.52;;;10.00;;
41829;SDS011;38614;43.472;23.936;2023-02-28T10:55:14;24.48;;;11.65;;
41829;SDS011;38614;43.472;23.936;2023-02-28T10:58:20;18.48;;;10.55;;
41829;SDS011;38614;43.472;23.936;2023-02-28T11:01:43;18.83;;;10.73;;
41829;SDS011;38614;43.472;23.936;2023-02-28T11:07:17;20.20;;;10.40;;
41829;SDS011;38614;43.472;23.936;2023-02-28T11:10:16;22.35;;;10.65;;
41829;SDS011;38614;43.472;23.936;2023-02-28T11:13:12;22.27;;;11.52;;
41829;SDS011;38614;43.472;23.936;2023-02-28T11:16:07;34.72;;;14.05;;
41829;SDS011;38614;43.472;23.936;2023-02-28T11:18:57;46.17;;;18.05;;
41829;SDS011;38614;43.472;23.936;2023-02-28T11:21:48;56.85;;;22.13;;
41829;SDS011;38614;43.472;23.936;2023-02-28T11:24:42;32.38;;;15.02;;
41829;SDS011;38614;43.472;23.936;2023-02-28T11:30:34;35.15;;;13.57;;
41829;SDS011;38614;43.472;23.936;2023-02-28T11:36:30;32.90;;;15.88;;
41829;SDS011;38614;43.472;23.936;2023-02-28T11:39:18;38.55;;;18.58;;
41829;SDS011;38614;43.472;23.936;2023-02-28T11:51:24;28.48;;;11.73;;
41829;SDS011;38614;43.472;23.936;2023-02-28T11:54:45;23.25;;;11.70;;
41829;SDS011;38614;43.472;23.936;2023-02-28T11:57:52;22.58;;;11.80;;
41829;SDS011;38614;43.472;23.936;2023-02-28T12:04:12;40.13;;;16.63;;
41829;SDS011;38614;43.472;23.936;2023-02-28T12:07:13;24.02;;;12.40;;
41829;SDS011;38614;43.472;23.936;2023-02-28T12:16:17;25.60;;;12.80;;
41829;SDS011;38614;43.472;23.936;2023-02-28T12:19:22;29.20;;;12.00;;
41829;SDS011;38614;43.472;23.936;2023-02-28T12:28:35;22.92;;;12.27;;
41829;SDS011;38614;43.472;23.936;2023-02-28T12:31:30;31.75;;;15.75;;
41829;SDS011;38614;43.472;23.936;2023-02-28T12:34:25;34.83;;;16.60;;
41829;SDS011;38614;43.472;23.936;2023-02-28T12:37:24;29.20;;;14.25;;
41829;SDS011;38614;43.472;23.936;2023-02-28T12:40:19;31.00;;;13.85;;
41829;SDS011;38614;43.472;23.936;2023-02-28T12:43:14;24.08;;;13.32;;
41829;SDS011;38614;43.472;23.936;2023-02-28T12:46:11;23.50;;;13.38;;
41829;SDS011;38614;43.472;23.936;2023-02-28T12:49:06;24.77;;;11.88;;
41829;SDS011;38614;43.472;23.936;2023-02-28T12:51:58;24.85;;;13.35;;
41829;SDS011;38614;43.472;23.936;2023-02-28T13:09:52;23.65;;;11.55;;
41829;SDS011;38614;43.472;23.936;2023-02-28T13:12:49;19.45;;;11.60;;
41829;SDS011;38614;43.472;23.936;2023-02-28T13:15:38;21.80;;;12.80;;
41829;SDS011;38614;43.472;23.936;2023-02-28T13:21:43;21.00;;;10.30;;
41829;SDS011;38614;43.472;23.936;2023-02-28T13:27:39;23.70;;;9.93;;
41829;SDS011;38614;43.472;23.936;2023-02-28T13:36:39;29.75;;;12.20;;
41829;SDS011;38614;43.472;23.936;2023-02-28T13:48:02;76.40;;;24.30;;
41829;SDS011;38614;43.472;23.936;2023-02-28T13:54:54;38.33;;;16.58;;
41829;SDS011;38614;43.472;23.936;2023-02-28T13:58:10;148.85;;;53.45;;
41829;SDS011;38614;43.472;23.936;2023-02-28T14:01:11;46.00;;;23.05;;
41829;SDS011;38614;43.472;23.936;2023-02-28T14:04:40;33.33;;;16.20;;
41829;SDS011;38614;43.472;23.936;2023-02-28T14:07:46;27.85;;;14.57;;
41829;SDS011;38614;43.472;23.936;2023-02-28T14:13:39;30.73;;;14.50;;
41829;SDS011;38614;43.472;23.936;2023-02-28T14:16:39;23.90;;;12.48;;
41829;SDS011;38614;43.472;23.936;2023-02-28T14:19:30;26.38;;;12.90;;
41829;SDS011;38614;43.472;23.936;2023-02-28T14:38:29;36.60;;;17.13;;
41829;SDS011;38614;43.472;23.936;2023-02-28T14:41:31;19.95;;;12.23;;
41829;SDS011;38614;43.472;23.936;2023-02-28T14:44:26;33.78;;;14.90;;
41829;SDS011;38614;43.472;23.936;2023-02-28T14:47:15;25.63;;;12.55;;
41829;SDS011;38614;43.472;23.936;2023-02-28T14:50:03;39.33;;;16.00;;
41829;SDS011;38614;43.472;23.936;2023-02-28T14:52:53;27.20;;;12.48;;
41829;SDS011;38614;43.472;23.936;2023-02-28T14:55:43;23.63;;;12.90;;
41829;SDS011;38614;43.472;23.936;2023-02-28T14:58:33;34.20;;;13.85;;
41829;SDS011;38614;43.472;23.936;2023-02-28T15:01:22;32.08;;;14.02;;
41829;SDS011;38614;43.472;23.936;2023-02-28T15:04:12;26.42;;;11.80;;
41829;SDS011;38614;43.472;23.936;2023-02-28T15:07:12;35.63;;;17.10;;
41829;SDS011;38614;43.472;23.936;2023-02-28T15:10:09;48.17;;;20.77;;
41829;SDS011;38614;43.472;23.936;2023-02-28T15:13:06;32.90;;;15.25;;
41829;SDS011;38614;43.472;23.936;2023-02-28T15:15:59;37.38;;;18.17;;
41829;SDS011;38614;43.472;23.936;2023-02-28T15:22:06;69.78;;;29.13;;
41829;SDS011;38614;43.472;23.936;2023-02-28T15:24:59;28.23;;;15.02;;
41829;SDS011;38614;43.472;23.936;2023-02-28T15:27:50;37.08;;;16.17;;
41829;SDS011;38614;43.472;23.936;2023-02-28T15:30:50;47.20;;;21.00;;
41829;SDS011;38614;43.472;23.936;2023-02-28T15:33:58;29.40;;;14.75;;
41829;SDS011;38614;43.472;23.936;2023-02-28T15:36:51;38.97;;;17.50;;
41829;SDS011;38614;43.472;23.936;2023-02-28T15:39:42;31.42;;;13.70;;
41829;SDS011;38614;43.472;23.936;2023-02-28T15:45:32;34.28;;;13.07;;
41829;SDS011;38614;43.472;23.936;2023-02-28T15:48:27;36.50;;;17.00;;
41829;SDS011;38614;43.472;23.936;2023-02-28T15:51:25;45.30;;;17.88;;
41829;SDS011;38614;43.472;23.936;2023-02-28T15:54:21;64.20;;;21.13;;
41829;SDS011;38614;43.472;23.936;2023-02-28T15:57:20;46.00;;;17.00;;
41829;SDS011;38614;43.472;23.936;2023-02-28T16:00:13;30.90;;;13.85;;
41829;SDS011;38614;43.472;23.936;2023-02-28T16:03:22;22.65;;;12.80;;
41829;SDS011;38614;43.472;23.936;2023-02-28T16:06:30;24.33;;;11.73;;
41829;SDS011;38614;43.472;23.936;2023-02-28T16:09:19;31.02;;;12.95;;
41829;SDS011;38614;43.472;23.936;2023-02-28T16:12:08;25.50;;;15.07;;
41829;SDS011;38614;43.472;23.936;2023-02-28T16:15:02;31.52;;;13.80;;
41829;SDS011;38614;43.472;23.936;2023-02-28T16:17:55;32.53;;;15.52;;
41829;SDS011;38614;43.472;23.936;2023-02-28T16:21:04;27.42;;;14.77;;
41829;SDS011;38614;43.472;23.936;2023-02-28T16:23:57;30.20;;;13.77;;
41829;SDS011;38614;43.472;23.936;2023-02-28T16:26:45;21.40;;;12.15;;
41829;SDS011;38614;43.472;23.936;2023-02-28T16:29:35;23.55;;;12.15;;
41829;SDS011;38614;43.472;23.936;2023-02-28T16:32:26;22.80;;;12.65;;
41829;SDS011;38614;43.472;23.936;2023-02-28T16:35:14;25.20;;;14.25;;
41829;SDS011;38614;43.472;23.936;2023-02-28T16:38:06;29.27;;;14.63;;
41829;SDS011;38614;43.472;23.936;2023-02-28T16:40:55;31.95;;;14.77;;
41829;SDS011;38614;43.472;23.936;2023-02-28T16:43:47;30.98;;;17.75;;
41829;SDS011;38614;43.472;23.936;2023-02-28T16:46:36;24.48;;;11.15;;
41829;SDS011;38614;43.472;23.936;2023-02-28T16:49:23;23.58;;;12.38;;
41829;SDS011;38614;43.472;23.936;2023-02-28T16:52:11;26.40;;;13.43;;
41829;SDS011;38614;43.472;23.936;2023-02-28T16:54:59;25.67;;;11.85;;
41829;SDS011;38614;43.472;23.936;2023-02-28T16:57:48;32.90;;;14.10;;
41829;SDS011;38614;43.472;23.936;2023-02-28T17:00:39;24.58;;;11.63;;
41829;SDS011;38614;43.472;23.936;2023-02-28T17:03:27;58.58;;;20.38;;
41829;SDS011;38614;43.472;23.936;2023-02-28T17:06:21;52.28;;;19.42;;
41829;SDS011;38614;43.472;23.936;2023-02-28T17:09:18;32.95;;;15.15;;
41829;SDS011;38614;43.472;23.936;2023-02-28T17:12:32;35.38;;;16.42;;
41829;SDS011;38614;43.472;23.936;2023-02-28T17:15:19;35.60;;;16.40;;
41829;SDS011;38614;43.472;23.936;2023-02-28T17:18:08;32.38;;;16.88;;
41829;SDS011;38614;43.472;23.936;2023-02-28T17:21:01;31.13;;;13.60;;
41829;SDS011;38614;43.472;23.936;2023-02-28T17:23:49;28.33;;;14.32;;
41829;SDS011;38614;43.472;23.936;2023-02-28T17:26:39;40.15;;;15.82;;
41829;SDS011;38614;43.472;23.936;2023-02-28T17:29:28;58.42;;;23.23;;
41829;SDS011;38614;43.472;23.936;2023-02-28T17:32:16;65.80;;;23.35;;
41829;SDS011;38614;43.472;23.936;2023-02-28T17:35:07;31.98;;;15.20;;
41829;SDS011;38614;43.472;23.936;2023-02-28T17:37:55;37.05;;;15.48;;
41829;SDS011;38614;43.472;23.936;2023-02-28T17:40:43;33.92;;;16.30;;
41829;SDS011;38614;43.472;23.936;2023-02-28T17:43:31;45.72;;;18.35;;
41829;SDS011;38614;43.472;23.936;2023-02-28T17:46:22;36.58;;;18.92;;
41829;SDS011;38614;43.472;23.936;2023-02-28T17:49:11;21.85;;;10.90;;
41829;SDS011;38614;43.472;23.936;2023-02-28T17:52:00;31.00;;;13.18;;
41829;SDS011;38614;43.472;23.936;2023-02-28T17:54:47;25.42;;;11.73;;
41829;SDS011;38614;43.472;23.936;2023-02-28T17:57:35;20.00;;;10.70;;
41829;SDS011;38614;43.472;23.936;2023-02-28T18:00:23;20.85;;;10.63;;
41829;SDS011;38614;43.472;23.936;2023-02-28T18:03:11;25.23;;;12.43;;
41829;SDS011;38614;43.472;23.936;2023-02-28T18:06:00;21.30;;;11.52;;
41829;SDS011;38614;43.472;23.936;2023-02-28T18:08:50;26.60;;;14.38;;
41829;SDS011;38614;43.472;23.936;2023-02-28T18:11:39;27.23;;;13.90;;
41829;SDS011;38614;43.472;23.936;2023-02-28T18:14:32;21.15;;;11.48;;
41829;SDS011;38614;43.472;23.936;2023-02-28T18:17:22;23.90;;;12.73;;
41829;SDS011;38614;43.472;23.936;2023-02-28T18:20:10;18.15;;;10.95;;
41829;SDS011;38614;43.472;23.936;2023-02-28T18:22:58;22.25;;;10.55;;
41829;SDS011;38614;43.472;23.936;2023-02-28T18:25:46;24.17;;;12.20;;
41829;SDS011;38614;43.472;23.936;2023-02-28T18:28:34;31.80;;;14.02;;
41829;SDS011;38614;43.472;23.936;2023-02-28T18:31:22;20.73;;;12.07;;
41829;SDS011;38614;43.472;23.936;2023-02-28T18:34:10;25.70;;;12.05;;
41829;SDS011;38614;43.472;23.936;2023-02-28T18:36:58;24.88;;;11.88;;
41829;SDS011;38614;43.472;23.936;2023-02-28T18:39:45;27.13;;;11.68;;
41829;SDS011;38614;43.472;23.936;2023-02-28T18:42:33;21.58;;;10.32;;
41829;SDS011;38614;43.472;23.936;2023-02-28T18:45:21;21.20;;;9.73;;
41829;SDS011;38614;43.472;23.936;2023-02-28T18:48:09;18.38;;;9.55;;
41829;SDS011;38614;43.472;23.936;2023-02-28T18:50:56;18.95;;;9.35;;
41829;SDS011;38614;43.472;23.936;2023-02-28T18:53:46;16.13;;;8.20;;
41829;SDS011;38614;43.472;23.936;2023-02-28T18:56:34;21.33;;;9.98;;